Homewood, Illinois
Current Conditions -  °F | °C
As of 5:55 PM on Wednesday 22 Oct 2014 (Local Time) from KIGQ Reporting Station
Clear Clear  
Wind Chill: 45°   Ceiling: Unl
Heat Index: 47°   Visibility: 10mi
Dew Point: 36°   Wind: 5mph
Humidity: 65%   Direction: 60°ENE
Pressure: 30.29"   Gusts: NA
Location:  41.56°N, 87.66°W
Report Text: KIGQ 222255Z AUTO 06004KT 10SM CLR 09/02 A3029 RMK AO2 T00850022
Loading
Personal Weather Stations






























Interactive Weather Map New forecast layout! Learn more

10-Day Weather Forecast

Advertisements
Track Severe Weather on mobile